Aviation Digital Data Service (ADDS)

Output produced by METARs form (2225 UTC 23 March 2019)
found at http://www.aviationweather.gov/metar/data/
 
METAR text: PGWT 232154Z 07011KT 7SM SCT015 BKN080 BKN100 26/22 A2991 RMK WIND DATA ESTIMATED
Conditions at: PGWT (PEIPEINIMARU/TIN, GU, US) observed 2154 UTC 23 March 2019
Temperature: 26.0°C (79°F)
Dewpoint: 22.0°C (72°F) [RH = 79%]
Pressure (altimeter): 29.91 inches Hg (1013.0 mb)
Winds: from the ENE (70 degrees) at 13 MPH (11 knots; 5.7 m/s)
Visibility: 7 miles (11 km)
Ceiling: 8000 feet AGL
Clouds: scattered clouds at 1500 feet AGL
broken clouds at 8000 feet AGL
broken clouds at 10000 feet AGL
Weather: no significant weather observed at this time

METAR text: PGWT 232059Z 07007KT 7SM SCT015 SCT060 BKN100 BKN140 26/22 A2990 RMK WIND DATA ESTIMATED
Conditions at: PGWT (PEIPEINIMARU/TIN, GU, US) observed 2059 UTC 23 March 2019
Temperature: 26.0°C (79°F)
Dewpoint: 22.0°C (72°F) [RH = 79%]
Pressure (altimeter): 29.90 inches Hg (1012.6 mb)
Winds: from the ENE (70 degrees) at 8 MPH (7 knots; 3.6 m/s)
Visibility: 7 miles (11 km)
Ceiling: 10000 feet AGL
Clouds: scattered clouds at 1500 feet AGL
scattered clouds at 6000 feet AGL
broken clouds at 10000 feet AGL
broken clouds at 14000 feet AGL
Weather: no significant weather observed at this time

METAR text: PGWT 231958Z 07007KT 7SM FEW015 SCT035 SCT060 BKN100 26/22 A2987 RMK WIND DATA ESTIMATED FIRST
Conditions at: PGWT (PEIPEINIMARU/TIN, GU, US) observed 1958 UTC 23 March 2019
Temperature: 26.0°C (79°F)
Dewpoint: 22.0°C (72°F) [RH = 79%]
Pressure (altimeter): 29.87 inches Hg (1011.6 mb)
Winds: from the ENE (70 degrees) at 8 MPH (7 knots; 3.6 m/s)
Visibility: 7 miles (11 km)
Ceiling: 10000 feet AGL
Clouds: few clouds at 1500 feet AGL
scattered clouds at 3500 feet AGL
scattered clouds at 6000 feet AGL
broken clouds at 10000 feet AGL
Weather: no significant weather observed at this time

METAR text: PGWT 230950Z 09006KT 7SM FEW017 26/20 A2986 RMK WIND DATA ESTIMATED LAST
Conditions at: PGWT (PEIPEINIMARU/TIN, GU, US) observed 0950 UTC 23 March 2019
Temperature: 26.0°C (79°F)
Dewpoint: 20.0°C (68°F) [RH = 70%]
Pressure (altimeter): 29.86 inches Hg (1011.3 mb)
Winds: from the E (90 degrees) at 7 MPH (6 knots; 3.1 m/s)
Visibility: 7 miles (11 km)
Ceiling: at least 12,000 feet AGL
Clouds: few clouds at 1700 feet AGL
Weather: no significant weather observed at this time

METAR text: PGWT 230850Z 09014KT 7SM FEW017 26/20 A2984 RMK WIND DATA ESTIMATED
Conditions at: PGWT (PEIPEINIMARU/TIN, GU, US) observed 0850 UTC 23 March 2019
Temperature: 26.0°C (79°F)
Dewpoint: 20.0°C (68°F) [RH = 70%]
Pressure (altimeter): 29.84 inches Hg (1010.6 mb)
Winds: from the E (90 degrees) at 16 MPH (14 knots; 7.2 m/s)
Visibility: 7 miles (11 km)
Ceiling: at least 12,000 feet AGL
Clouds: few clouds at 1700 feet AGL
Weather: no significant weather observed at this time

METAR text: PGWT 230659Z 09014KT 7SM SCT017 29/21 A2983 RMK WIND DATA ESTIMATED
Conditions at: PGWT (PEIPEINIMARU/TIN, GU, US) observed 0659 UTC 23 March 2019
Temperature: 29.0°C (84°F)
Dewpoint: 21.0°C (70°F) [RH = 62%]
Pressure (altimeter): 29.83 inches Hg (1010.2 mb)
Winds: from the E (90 degrees) at 16 MPH (14 knots; 7.2 m/s)
Visibility: 7 miles (11 km)
Ceiling: at least 12,000 feet AGL
Clouds: scattered clouds at 1700 feet AGL
Weather: no significant weather observed at this time

METAR text: PGWT 230550Z 09014KT 7SM SCT017 29/21 A2983 RMK WIND DATA ESTIMATED
Conditions at: PGWT (PEIPEINIMARU/TIN, GU, US) observed 0550 UTC 23 March 2019
Temperature: 29.0°C (84°F)
Dewpoint: 21.0°C (70°F) [RH = 62%]
Pressure (altimeter): 29.83 inches Hg (1010.2 mb)
Winds: from the E (90 degrees) at 16 MPH (14 knots; 7.2 m/s)
Visibility: 7 miles (11 km)
Ceiling: at least 12,000 feet AGL
Clouds: scattered clouds at 1700 feet AGL
Weather: no significant weather observed at this time

METAR text: PGWT 230459Z 09014KT 7SM SCT017 29/22 A2983 RMK WIND DATA ESTIMATED
Conditions at: PGWT (PEIPEINIMARU/TIN, GU, US) observed 0459 UTC 23 March 2019
Temperature: 29.0°C (84°F)
Dewpoint: 22.0°C (72°F) [RH = 66%]
Pressure (altimeter): 29.83 inches Hg (1010.2 mb)
Winds: from the E (90 degrees) at 16 MPH (14 knots; 7.2 m/s)
Visibility: 7 miles (11 km)
Ceiling: at least 12,000 feet AGL
Clouds: scattered clouds at 1700 feet AGL
Weather: no significant weather observed at this time

METAR text: PGWT 230359Z 09014KT 7SM SCT016 28/22 A2984 RMK WIND DATA ESTIMATED
Conditions at: PGWT (PEIPEINIMARU/TIN, GU, US) observed 0359 UTC 23 March 2019
Temperature: 28.0°C (82°F)
Dewpoint: 22.0°C (72°F) [RH = 70%]
Pressure (altimeter): 29.84 inches Hg (1010.6 mb)
Winds: from the E (90 degrees) at 16 MPH (14 knots; 7.2 m/s)
Visibility: 7 miles (11 km)
Ceiling: at least 12,000 feet AGL
Clouds: scattered clouds at 1600 feet AGL
Weather: no significant weather observed at this time

METAR text: PGWT 230250Z 09016KT 7SM SCT015 27/22 A2986 RMK WIND DATA ESTIMATED
Conditions at: PGWT (PEIPEINIMARU/TIN, GU, US) observed 0250 UTC 23 March 2019
Temperature: 27.0°C (81°F)
Dewpoint: 22.0°C (72°F) [RH = 74%]
Pressure (altimeter): 29.86 inches Hg (1011.3 mb)
Winds: from the E (90 degrees) at 18 MPH (16 knots; 8.2 m/s)
Visibility: 7 miles (11 km)
Ceiling: at least 12,000 feet AGL
Clouds: scattered clouds at 1500 feet AGL
Weather: no significant weather observed at this time

METAR text: PGWT 230155Z 09016KT 7SM SCT015 28/22 A2988 RMK WIND DATA ESTIMATED
Conditions at: PGWT (PEIPEINIMARU/TIN, GU, US) observed 0155 UTC 23 March 2019
Temperature: 28.0°C (82°F)
Dewpoint: 22.0°C (72°F) [RH = 70%]
Pressure (altimeter): 29.88 inches Hg (1011.9 mb)
Winds: from the E (90 degrees) at 18 MPH (16 knots; 8.2 m/s)
Visibility: 7 miles (11 km)
Ceiling: at least 12,000 feet AGL
Clouds: scattered clouds at 1500 feet AGL
Weather: no significant weather observed at this time

METAR text: PGWT 230059Z 09016KT 7SM SCT015 28/21 A2990 RMK WIND DATA ESTIMATED
Conditions at: PGWT (PEIPEINIMARU/TIN, GU, US) observed 0059 UTC 23 March 2019
Temperature: 28.0°C (82°F)
Dewpoint: 21.0°C (70°F) [RH = 66%]
Pressure (altimeter): 29.90 inches Hg (1012.6 mb)
Winds: from the E (90 degrees) at 18 MPH (16 knots; 8.2 m/s)
Visibility: 7 miles (11 km)
Ceiling: at least 12,000 feet AGL
Clouds: scattered clouds at 1500 feet AGL
Weather: no significant weather observed at this time

METAR text: PGWT 222354Z 08013KT 7SM SCT016 27/21 A2990 RMK WIND DATA ESTIMATED
Conditions at: PGWT (PEIPEINIMARU/TIN, GU, US) observed 2354 UTC 22 March 2019
Temperature: 27.0°C (81°F)
Dewpoint: 21.0°C (70°F) [RH = 70%]
Pressure (altimeter): 29.90 inches Hg (1012.6 mb)
Winds: from the E (80 degrees) at 15 MPH (13 knots; 6.7 m/s)
Visibility: 7 miles (11 km)
Ceiling: at least 12,000 feet AGL
Clouds: scattered clouds at 1600 feet AGL
Weather: no significant weather observed at this time

METAR text: PGWT 222252Z 06012KT 7SM SCT016 26/21 A2991 RMK WIND DATA ESTIMATED
Conditions at: PGWT (PEIPEINIMARU/TIN, GU, US) observed 2252 UTC 22 March 2019
Temperature: 26.0°C (79°F)
Dewpoint: 21.0°C (70°F) [RH = 74%]
Pressure (altimeter): 29.91 inches Hg (1013.0 mb)
Winds: from the ENE (60 degrees) at 14 MPH (12 knots; 6.2 m/s)
Visibility: 7 miles (11 km)
Ceiling: at least 12,000 feet AGL
Clouds: scattered clouds at 1600 feet AGL
Weather: no significant weather observed at this time

METAR text: PGWT 222157Z 08012KT 7SM SCT016 SCT040 SCT080 26/22 A2990 RMK WIND DATA ESTIMATED
Conditions at: PGWT (PEIPEINIMARU/TIN, GU, US) observed 2157 UTC 22 March 2019
Temperature: 26.0°C (79°F)
Dewpoint: 22.0°C (72°F) [RH = 79%]
Pressure (altimeter): 29.90 inches Hg (1012.6 mb)
Winds: from the E (80 degrees) at 14 MPH (12 knots; 6.2 m/s)
Visibility: 7 miles (11 km)
Ceiling: at least 12,000 feet AGL
Clouds: scattered clouds at 1600 feet AGL
scattered clouds at 4000 feet AGL
scattered clouds at 8000 feet AGL
Weather: no significant weather observed at this time

METAR text: PGWT 222058Z 08010KT 7SM FEW016 24/22 A2988 RMK WIND DATA ESTIMATED
Conditions at: PGWT (PEIPEINIMARU/TIN, GU, US) observed 2058 UTC 22 March 2019
Temperature: 24.0°C (75°F)
Dewpoint: 22.0°C (72°F) [RH = 89%]
Pressure (altimeter): 29.88 inches Hg (1011.9 mb)
Winds: from the E (80 degrees) at 12 MPH (10 knots; 5.1 m/s)
Visibility: 7 miles (11 km)
Ceiling: at least 12,000 feet AGL
Clouds: few clouds at 1600 feet AGL
Weather: no significant weather observed at this time

METAR text: PGWT 221959Z 08010KT 7SM FEW016 SCT080 23/22 A2985 RMK WIND DATA ESTIMATED FIRST
Conditions at: PGWT (PEIPEINIMARU/TIN, GU, US) observed 1959 UTC 22 March 2019
Temperature: 23.0°C (73°F)
Dewpoint: 22.0°C (72°F) [RH = 94%]
Pressure (altimeter): 29.85 inches Hg (1010.9 mb)
Winds: from the E (80 degrees) at 12 MPH (10 knots; 5.1 m/s)
Visibility: 7 miles (11 km)
Ceiling: at least 12,000 feet AGL
Clouds: few clouds at 1600 feet AGL
scattered clouds at 8000 feet AGL
Weather: no significant weather observed at this time

Forecast for: PGWT (PEIPEINIMARU/TIN, GU, US)
Text: PGWT 232021Z 2320/2418 06007KT P6SM VCSH SCT025 SCT050
Forecast period: 2000 UTC 23 March 2019 to 0000 UTC 24 March 2019
Forecast type: FROM: standard forecast or significant change
Winds: from the ENE (60 degrees) at 8 MPH (7 knots; 3.6 m/s)
Visibility: 6 or more miles 10+ km)
Ceiling: at least 12,000 feet AGL
Clouds: scattered clouds at 2500 feet AGL
scattered clouds at 5000 feet AGL
Weather: VCSH  (showers in vicinity)
Text: TEMPO 2320/2324 -SHRA SCT018 BKN030
Forecast period: 2000 UTC 23 March 2019 to 0000 UTC 24 March 2019
Forecast type: TEMPORARY: The following changes expected for less than half the time period
Visibility: missing
Ceiling: 3000 feet AGL
Clouds: scattered clouds at 1800 feet AGL
broken clouds at 3000 feet AGL
Weather: -SHRA  (light rain showers)
Text: FM240000 06011G18KT P6SM FEW025 SCT050
Forecast period: 0000 to 0800 UTC 24 March 2019
Forecast type: FROM: standard forecast or significant change
Winds: from the ENE (60 degrees) at 13 MPH (11 knots; 5.7 m/s)
gusting to 21 MPH (18 knots; 9.3 m/s)
Visibility: 6 or more miles 10+ km)
Ceiling: at least 12,000 feet AGL
Clouds: few clouds at 2500 feet AGL
scattered clouds at 5000 feet AGL
Weather: no significant weather forecast for this period
Text: FM240800 06009KT P6SM FEW025 SCT050
Forecast period: 0800 to 1800 UTC 24 March 2019
Forecast type: FROM: standard forecast or significant change
Winds: from the ENE (60 degrees) at 10 MPH (9 knots; 4.6 m/s)
Visibility: 6 or more miles 10+ km)
Ceiling: at least 12,000 feet AGL
Clouds: few clouds at 2500 feet AGL
scattered clouds at 5000 feet AGL
Weather: no significant weather forecast for this period